Time;durP1;ratioP1;P1;durP2;ratioP2;P2;SDS_P1;SDS_P2;PMS_P1;PMS_P2;Temp;Humidity;BMP_temperature;BMP_pressure;BME280_temperature;BME280_humidity;BME280_pressure;Samples;Min_cycle;Max_cycle;Signal;HPM_P1;HPM_P2
2021/11/01 00:01:28;;;;;;;19.37;11.90;;;;;;;;;;5015862;28;20158;-67
2021/11/01 00:03:53;;;;;;;15.90;11.30;;;;;;;;;;5022179;28;20742;-67
2021/11/01 00:06:19;;;;;;;21.10;11.70;;;;;;;;;;5025822;28;20150;-68
2021/11/01 00:08:45;;;;;;;20.40;12.10;;;;;;;;;;5028905;28;20548;-68
2021/11/01 00:11:10;;;;;;;19.63;11.97;;;;;;;;;;5022816;28;20228;-69
2021/11/01 00:13:36;;;;;;;17.77;11.20;;;;;;;;;;5021359;28;20973;-69
2021/11/01 00:16:01;;;;;;;18.77;11.97;;;;;;;;;;5019593;28;20621;-70
2021/11/01 00:18:26;;;;;;;21.00;11.47;;;;;;;;;;5022210;28;20174;-68
2021/11/01 00:20:52;;;;;;;22.60;13.60;;;;;;;;;;5028386;28;20212;-68
2021/11/01 00:23:17;;;;;;;19.17;12.80;;;;;;;;;;5020089;28;20157;-66
2021/11/01 00:25:43;;;;;;;28.70;13.70;;;;;;;;;;5023713;28;20236;-67
2021/11/01 00:28:11;;;;;;;22.10;11.07;;;;;;;;;;5030242;28;20185;-70
2021/11/01 00:30:36;;;;;;;24.23;13.00;;;;;;;;;;5025545;28;20216;-68
2021/11/01 00:33:02;;;;;;;19.20;12.97;;;;;;;;;;5026649;28;20436;-67
2021/11/01 00:35:27;;;;;;;20.70;11.93;;;;;;;;;;5026055;28;20155;-70
2021/11/01 00:37:52;;;;;;;19.23;11.80;;;;;;;;;;5020882;28;20213;-69
2021/11/01 00:40:17;;;;;;;22.27;13.97;;;;;;;;;;5024861;28;20209;-70
2021/11/01 00:42:43;;;;;;;20.37;12.33;;;;;;;;;;5016867;28;20578;-70
2021/11/01 00:45:08;;;;;;;19.50;11.63;;;;;;;;;;5014693;28;20192;-67
2021/11/01 00:47:33;;;;;;;19.00;12.20;;;;;;;;;;5016533;28;20202;-70
2021/11/01 00:49:59;;;;;;;23.30;12.60;;;;;;;;;;5018533;28;20168;-70
2021/11/01 00:52:29;;;;;;;26.67;12.77;;;;;;;;;;5016156;28;20708;-70
2021/11/01 00:55:03;;;;;;;22.13;12.10;;;;;;;;;;5015288;28;20588;-68
2021/11/01 00:57:28;;;;;;;20.17;13.67;;;;;;;;;;5020124;28;20415;-69
2021/11/01 00:59:55;;;;;;;20.37;12.67;;;;;;;;;;5021466;28;20425;-70
2021/11/01 01:02:20;;;;;;;18.87;12.87;;;;;;;;;;5015339;28;20170;-69
2021/11/01 01:04:46;;;;;;;21.83;13.20;;;;;;;;;;5027775;28;20398;-70
2021/11/01 01:07:11;;;;;;;21.43;12.80;;;;;;;;;;5025556;28;20159;-70
2021/11/01 01:09:36;;;;;;;21.43;13.10;;;;;;;;;;5017526;28;20170;-69
2021/11/01 01:12:02;;;;;;;17.87;12.17;;;;;;;;;;5034372;28;20227;-68
2021/11/01 01:14:30;;;;;;;21.57;12.90;;;;;;;;;;5031936;28;20193;-67
2021/11/01 01:16:58;;;;;;;21.97;13.67;;;;;;;;;;5025571;28;20397;-68
2021/11/01 01:19:30;;;;;;;19.23;12.20;;;;;;;;;;5015087;28;20400;-68
2021/11/01 01:22:13;;;;;;;18.57;11.87;;;;;;;;;;5031230;28;20397;-70
2021/11/01 01:24:39;;;;;;;23.43;12.90;;;;;;;;;;5017260;28;20401;-69
2021/11/01 01:27:04;;;;;;;20.37;13.07;;;;;;;;;;5024456;28;20412;-69
2021/11/01 01:29:30;;;;;;;23.73;12.40;;;;;;;;;;5014838;28;20602;-68
2021/11/01 01:31:56;;;;;;;20.87;12.90;;;;;;;;;;5018987;28;20162;-69
2021/11/01 01:34:21;;;;;;;18.43;12.83;;;;;;;;;;5027086;28;20455;-70
2021/11/01 01:36:47;;;;;;;18.93;13.40;;;;;;;;;;5026171;28;20221;-71
2021/11/01 01:39:12;;;;;;;18.03;12.97;;;;;;;;;;5032257;28;20162;-70
2021/11/01 01:41:42;;;;;;;24.57;12.30;;;;;;;;;;5020565;28;20169;-70
2021/11/01 01:44:07;;;;;;;21.70;14.10;;;;;;;;;;5019298;28;20178;-70
2021/11/01 01:46:33;;;;;;;22.00;12.13;;;;;;;;;;5015165;28;20492;-67
2021/11/01 01:48:58;;;;;;;20.17;13.47;;;;;;;;;;5016606;28;20246;-70
2021/11/01 01:51:28;;;;;;;18.90;13.23;;;;;;;;;;5031914;28;20243;-70
2021/11/01 01:53:54;;;;;;;23.57;12.60;;;;;;;;;;5032687;28;20222;-70
2021/11/01 01:56:19;;;;;;;23.00;13.90;;;;;;;;;;5029496;28;20484;-70
2021/11/01 01:58:47;;;;;;;18.43;12.80;;;;;;;;;;5023876;28;20699;-68
2021/11/01 02:01:15;;;;;;;20.63;12.93;;;;;;;;;;5032660;28;20409;-70
2021/11/01 02:03:41;;;;;;;17.87;11.97;;;;;;;;;;5021243;28;20494;-69
2021/11/01 02:06:09;;;;;;;19.80;13.10;;;;;;;;;;5032245;28;20505;-70
2021/11/01 02:08:39;;;;;;;20.93;14.63;;;;;;;;;;5033886;28;20404;-70
2021/11/01 02:11:08;;;;;;;25.63;14.13;;;;;;;;;;5029533;28;20409;-69
2021/11/01 02:13:36;;;;;;;24.60;13.83;;;;;;;;;;5031109;28;20446;-71
2021/11/01 02:16:02;;;;;;;20.10;13.10;;;;;;;;;;5041139;28;20911;-70
2021/11/01 02:18:29;;;;;;;18.40;11.87;;;;;;;;;;5026051;28;20425;-69
2021/11/01 02:20:55;;;;;;;18.67;12.53;;;;;;;;;;5056376;28;20413;-68
2021/11/01 02:23:29;;;;;;;20.27;13.70;;;;;;;;;;5032741;28;20405;-71
2021/11/01 02:25:57;;;;;;;19.47;13.17;;;;;;;;;;5025023;28;20257;-71
2021/11/01 02:28:26;;;;;;;20.83;13.60;;;;;;;;;;5016474;28;20409;-68
2021/11/01 02:30:52;;;;;;;19.73;12.20;;;;;;;;;;5019402;28;20405;-68
2021/11/01 02:33:18;;;;;;;22.43;13.10;;;;;;;;;;5021844;28;20468;-69
2021/11/01 02:35:43;;;;;;;22.00;12.50;;;;;;;;;;5014452;28;20189;-71
2021/11/01 02:38:12;;;;;;;19.80;12.63;;;;;;;;;;5016833;28;20919;-69
2021/11/01 02:40:37;;;;;;;19.43;13.60;;;;;;;;;;5031101;28;20158;-70
2021/11/01 02:43:03;;;;;;;20.00;12.83;;;;;;;;;;5019182;28;20464;-67
2021/11/01 02:45:28;;;;;;;21.47;13.00;;;;;;;;;;5030026;28;20173;-69
2021/11/01 02:47:53;;;;;;;20.20;12.57;;;;;;;;;;5028743;28;20170;-69
2021/11/01 02:50:19;;;;;;;18.10;13.87;;;;;;;;;;5033121;28;20177;-69
2021/11/01 02:52:45;;;;;;;21.33;12.53;;;;;;;;;;5024225;28;20531;-70
2021/11/01 02:55:12;;;;;;;22.47;14.00;;;;;;;;;;5032683;28;20503;-70
2021/11/01 02:57:39;;;;;;;19.00;12.40;;;;;;;;;;5023470;28;20605;-70
2021/11/01 03:00:05;;;;;;;18.27;12.60;;;;;;;;;;5013091;28;20386;-70
2021/11/01 03:02:31;;;;;;;18.60;12.33;;;;;;;;;;5030371;28;20463;-70
2021/11/01 03:04:56;;;;;;;21.70;12.30;;;;;;;;;;5019514;28;20822;-70
2021/11/01 03:07:23;;;;;;;18.67;12.20;;;;;;;;;;5024716;28;20173;-66
2021/11/01 03:09:49;;;;;;;18.97;12.90;;;;;;;;;;5030646;28;20237;-70
2021/11/01 03:12:17;;;;;;;20.20;13.07;;;;;;;;;;5026765;28;20478;-68
2021/11/01 03:14:45;;;;;;;21.50;12.67;;;;;;;;;;5018427;28;20523;-68
2021/11/01 03:17:18;;;;;;;20.53;12.83;;;;;;;;;;5016701;28;20409;-69
2021/11/01 03:19:45;;;;;;;23.50;12.80;;;;;;;;;;5030121;28;20397;-68
2021/11/01 03:22:11;;;;;;;24.10;12.93;;;;;;;;;;5021094;28;20470;-70
2021/11/01 03:24:39;;;;;;;18.50;12.80;;;;;;;;;;5020460;28;20993;-71
2021/11/01 03:27:06;;;;;;;18.17;12.07;;;;;;;;;;5027315;28;20612;-68
2021/11/01 03:29:36;;;;;;;19.90;14.27;;;;;;;;;;5031927;28;20500;-71
2021/11/01 03:32:02;;;;;;;18.47;13.27;;;;;;;;;;5021829;28;20396;-71
2021/11/01 03:34:28;;;;;;;21.10;13.33;;;;;;;;;;5023440;28;20970;-70
2021/11/01 03:36:55;;;;;;;20.37;12.97;;;;;;;;;;5012598;28;20445;-71
2021/11/01 03:39:21;;;;;;;19.27;13.43;;;;;;;;;;5012565;28;20841;-71
2021/11/01 03:41:47;;;;;;;18.90;13.20;;;;;;;;;;5025286;28;20402;-69
2021/11/01 03:44:19;;;;;;;23.73;14.97;;;;;;;;;;5017848;28;20406;-70
2021/11/01 03:49:15;;;;;;;20.00;13.20;;;;;;;;;;5013918;28;20413;-67
2021/11/01 03:51:49;;;;;;;23.03;14.83;;;;;;;;;;5030709;28;20428;-70
2021/11/01 03:54:16;;;;;;;19.93;12.83;;;;;;;;;;5032169;28;20694;-69
2021/11/01 03:56:42;;;;;;;120.13;26.23;;;;;;;;;;5030160;28;20894;-70
2021/11/01 03:59:08;;;;;;;37.70;16.30;;;;;;;;;;5019840;28;20856;-69
2021/11/01 04:01:41;;;;;;;27.77;14.70;;;;;;;;;;5029584;28;20958;-69
2021/11/01 04:04:07;;;;;;;24.03;15.00;;;;;;;;;;5023920;28;20603;-69
2021/11/01 04:06:33;;;;;;;24.27;13.97;;;;;;;;;;5015495;28;20413;-68
2021/11/01 04:08:58;;;;;;;22.40;14.43;;;;;;;;;;5025769;28;20772;-70
2021/11/01 04:11:24;;;;;;;19.27;12.77;;;;;;;;;;5030319;28;20169;-71
2021/11/01 04:13:55;;;;;;;20.03;12.80;;;;;;;;;;5030457;28;20181;-69
2021/11/01 04:16:24;;;;;;;19.00;13.97;;;;;;;;;;5019435;28;20173;-70
2021/11/01 04:19:00;;;;;;;18.70;13.00;;;;;;;;;;5024890;28;20407;-70
2021/11/01 04:21:25;;;;;;;25.80;13.80;;;;;;;;;;5026534;28;20410;-69
2021/11/01 04:23:51;;;;;;;22.70;14.77;;;;;;;;;;5016454;28;20413;-70
2021/11/01 04:26:18;;;;;;;24.90;13.57;;;;;;;;;;5013819;28;20177;-68
2021/11/01 04:28:44;;;;;;;19.40;13.67;;;;;;;;;;5017411;28;20162;-70
2021/11/01 04:31:13;;;;;;;19.67;12.67;;;;;;;;;;5020820;28;20405;-68
2021/11/01 04:33:40;;;;;;;20.50;12.90;;;;;;;;;;5018582;28;20620;-70
2021/11/01 04:36:06;;;;;;;20.70;14.07;;;;;;;;;;5022378;28;20463;-69
2021/11/01 04:38:43;;;;;;;27.63;14.40;;;;;;;;;;5030193;28;20515;-69
2021/11/01 04:41:21;;;;;;;29.07;14.33;;;;;;;;;;5014350;28;20632;-68
2021/11/01 04:54:24;;;;;;;21.00;13.93;;;;;;;;;;5027135;28;21097;-68
2021/11/01 04:56:50;;;;;;;21.10;13.73;;;;;;;;;;5012883;28;20409;-71
2021/11/01 04:59:15;;;;;;;22.67;14.90;;;;;;;;;;5011337;28;20707;-71
2021/11/01 05:01:44;;;;;;;19.13;14.10;;;;;;;;;;5021817;28;20162;-70
2021/11/01 05:04:14;;;;;;;22.43;15.00;;;;;;;;;;5025152;28;20173;-70
2021/11/01 05:06:50;;;;;;;24.00;15.20;;;;;;;;;;5019195;28;20405;-68
2021/11/01 05:09:21;;;;;;;30.60;15.37;;;;;;;;;;5020797;28;20416;-71
2021/11/01 05:12:31;;;;;;;36.37;15.80;;;;;;;;;;5029759;28;20400;-70
2021/11/01 05:19:55;;;;;;;26.13;14.33;;;;;;;;;;5020354;28;20837;-70
2021/11/01 05:22:48;;;;;;;22.63;14.80;;;;;;;;;;5022878;28;20411;-71
2021/11/01 05:25:12;;;;;;;23.93;13.27;;;;;;;;;;5029982;28;20416;-69
2021/11/01 05:30:14;;;;;;;24.83;14.50;;;;;;;;;;5026837;28;20414;-69
2021/11/01 05:32:42;;;;;;;24.20;15.50;;;;;;;;;;5016252;28;20402;-70
2021/11/01 05:35:07;;;;;;;28.50;15.50;;;;;;;;;;5016012;28;21046;-70
2021/11/01 05:37:32;;;;;;;33.50;14.50;;;;;;;;;;5022603;28;20452;-71
2021/11/01 05:39:58;;;;;;;25.97;13.33;;;;;;;;;;5016828;28;20181;-70
2021/11/01 05:42:23;;;;;;;26.63;14.07;;;;;;;;;;5025581;28;20165;-72
2021/11/01 05:44:48;;;;;;;18.43;12.60;;;;;;;;;;5022342;28;20173;-69
2021/11/01 05:47:14;;;;;;;24.50;13.90;;;;;;;;;;5017595;28;20193;-67
2021/11/01 05:49:39;;;;;;;26.03;14.83;;;;;;;;;;5032064;28;20146;-70
2021/11/01 05:52:10;;;;;;;20.00;13.70;;;;;;;;;;5022479;28;20170;-71
2021/11/01 05:54:36;;;;;;;20.87;14.10;;;;;;;;;;5029091;28;20255;-69
2021/11/01 05:57:28;;;;;;;24.73;15.50;;;;;;;;;;5028107;28;20401;-71
2021/11/01 06:02:44;;;;;;;23.60;14.13;;;;;;;;;;5027164;28;20400;-72
2021/11/01 06:05:18;;;;;;;21.80;13.20;;;;;;;;;;5033275;28;20404;-70
2021/11/01 06:07:53;;;;;;;20.03;13.03;;;;;;;;;;5031201;28;20930;-72
2021/11/01 06:15:47;;;;;;;22.87;15.10;;;;;;;;;;5014601;28;20408;-70
2021/11/01 06:18:12;;;;;;;22.47;14.73;;;;;;;;;;5025104;28;21061;-73
2021/11/01 06:20:38;;;;;;;24.07;14.40;;;;;;;;;;5022903;28;20420;-72
2021/11/01 06:23:03;;;;;;;24.73;14.23;;;;;;;;;;5029773;28;20531;-71
2021/11/01 06:25:29;;;;;;;22.13;14.73;;;;;;;;;;5030561;28;20181;-72
2021/11/01 06:27:55;;;;;;;21.73;12.63;;;;;;;;;;5026834;28;20647;-70
2021/11/01 07:16:46;;;;;;;18.40;12.23;;;;;;;;;;5030830;28;20399;-73
2021/11/01 07:21:37;;;;;;;21.77;13.03;;;;;;;;;;5014949;28;20413;-69
2021/11/01 08:36:58;;;;;;;18.87;11.00;;;;;;;;;;5024205;28;20938;-71
2021/11/01 09:03:51;;;;;;;16.87;10.23;;;;;;;;;;5014993;28;20496;-71
2021/11/01 09:27:38;;;;;;;15.90;9.43;;;;;;;;;;5034560;28;20380;-71
2021/11/01 09:36:13;;;;;;;23.47;12.87;;;;;;;;;;5014416;28;20847;-72
2021/11/01 09:38:55;;;;;;;17.87;10.10;;;;;;;;;;5012467;28;20486;-72
2021/11/01 09:43:28;;;;;;;19.80;11.10;;;;;;;;;;5033246;28;20448;-73
2021/11/01 09:46:01;;;;;;;17.70;9.97;;;;;;;;;;5022685;28;20405;-71
2021/11/01 09:48:27;;;;;;;30.87;12.50;;;;;;;;;;5023388;28;20445;-73
2021/11/01 09:50:53;;;;;;;20.67;9.10;;;;;;;;;;5033118;28;20416;-69
2021/11/01 09:53:22;;;;;;;19.90;10.40;;;;;;;;;;5019484;28;20198;-71
2021/11/01 09:56:05;;;;;;;;;;;;;;;;;;;;;
2021/11/01 10:01:16;;;;;;;18.60;11.93;;;;;;;;;;5020433;28;20474;-72
2021/11/01 10:03:46;;;;;;;16.77;10.13;;;;;;;;;;5025911;28;20784;-72
2021/11/01 10:06:17;;;;;;;16.10;9.93;;;;;;;;;;5033305;28;20411;-70
2021/11/01 10:08:49;;;;;;;16.97;9.50;;;;;;;;;;5033160;28;20411;-70
2021/11/01 10:11:16;;;;;;;15.53;9.30;;;;;;;;;;5018412;28;20924;-70
2021/11/01 10:13:42;;;;;;;13.47;8.70;;;;;;;;;;5032276;28;20654;-71
2021/11/01 10:18:51;;;;;;;12.30;8.57;;;;;;;;;;5019975;28;20244;-73
2021/11/01 10:21:18;;;;;;;13.00;8.50;;;;;;;;;;5017605;28;20793;-75
2021/11/01 10:23:47;;;;;;;15.33;8.70;;;;;;;;;;5023442;28;20608;-75
2021/11/01 10:26:17;;;;;;;14.00;9.10;;;;;;;;;;5032727;28;20443;-74
2021/11/01 10:28:43;;;;;;;16.20;9.10;;;;;;;;;;5024797;28;20517;-74
2021/11/01 10:31:13;;;;;;;17.60;8.93;;;;;;;;;;5014661;28;20990;-70
2021/11/01 10:33:44;;;;;;;13.93;8.30;;;;;;;;;;5029242;28;20190;-70
2021/11/01 10:36:10;;;;;;;13.33;8.20;;;;;;;;;;5032400;28;20419;-76
2021/11/01 10:38:39;;;;;;;15.73;9.90;;;;;;;;;;5020522;28;20824;-74
2021/11/01 10:41:11;;;;;;;56.53;35.13;;;;;;;;;;5032571;28;20513;-75
2021/11/01 11:11:07;;;;;;;14.90;10.00;;;;;;;;;;5018775;28;20417;-72
2021/11/01 11:13:40;;;;;;;14.40;9.00;;;;;;;;;;5012038;28;20437;-76
2021/11/01 11:16:08;;;;;;;15.43;9.77;;;;;;;;;;5023628;28;20412;-70
2021/11/01 11:26:59;;;;;;;18.03;10.33;;;;;;;;;;5031764;28;20397;-71
2021/11/01 11:40:35;;;;;;;18.57;8.70;;;;;;;;;;5031763;28;20479;-74
2021/11/01 11:48:24;;;;;;;13.67;8.50;;;;;;;;;;5030165;28;20476;-71
2021/11/01 11:50:50;;;;;;;12.50;8.73;;;;;;;;;;5011426;28;20525;-74
2021/11/01 11:53:16;;;;;;;13.40;8.10;;;;;;;;;;5018045;28;20479;-77
2021/11/01 11:55:43;;;;;;;16.60;9.00;;;;;;;;;;5030818;28;20412;-75
2021/11/01 11:58:13;;;;;;;14.37;9.20;;;;;;;;;;5031517;28;20481;-68
2021/11/01 12:00:39;;;;;;;13.97;8.30;;;;;;;;;;5020671;28;20436;-72
2021/11/01 12:03:13;;;;;;;23.07;10.10;;;;;;;;;;5025441;28;20838;-73
2021/11/01 12:05:57;;;;;;;12.97;8.60;;;;;;;;;;5014706;28;20487;-70
2021/11/01 12:17:07;;;;;;;25.07;18.83;;;;;;;;;;5018092;28;20817;-70
2021/11/01 12:19:33;;;;;;;15.73;8.67;;;;;;;;;;5028382;28;20427;-68
2021/11/01 12:22:01;;;;;;;14.57;8.90;;;;;;;;;;5029716;28;20400;-69
2021/11/01 12:24:28;;;;;;;14.17;8.30;;;;;;;;;;5016942;28;22269;-67
2021/11/01 12:27:01;;;;;;;10.93;7.63;;;;;;;;;;5030515;28;20492;-68
2021/11/01 12:29:26;;;;;;;12.83;8.57;;;;;;;;;;5028267;28;20174;-69
2021/11/01 12:32:02;;;;;;;10.30;6.67;;;;;;;;;;5030503;28;20381;-72
2021/11/01 12:34:28;;;;;;;13.32;8.32;;;;;;;;;;5028995;28;20448;-71
2021/11/01 12:37:04;;;;;;;16.53;8.27;;;;;;;;;;5030228;28;20240;-72
2021/11/01 12:39:41;;;;;;;12.10;7.53;;;;;;;;;;5030861;28;20434;-67
2021/11/01 12:58:24;;;;;;;11.43;8.00;;;;;;;;;;5031045;28;20422;-70
2021/11/01 13:00:50;;;;;;;13.97;8.13;;;;;;;;;;5011234;28;20398;-67
2021/11/01 13:03:17;;;;;;;12.53;8.00;;;;;;;;;;5017636;28;20170;-69
2021/11/01 13:05:52;;;;;;;12.00;7.27;;;;;;;;;;5029816;28;20164;-69
2021/11/01 13:08:23;;;;;;;12.50;8.00;;;;;;;;;;5029098;28;20426;-72
2021/11/01 13:10:56;;;;;;;18.77;8.47;;;;;;;;;;5029901;28;20400;-70
2021/11/01 13:19:24;;;;;;;14.37;8.77;;;;;;;;;;5010553;28;20480;-69
2021/11/01 13:21:57;;;;;;;13.67;7.90;;;;;;;;;;5018762;28;20424;-68
2021/11/01 13:24:34;;;;;;;20.87;9.53;;;;;;;;;;5029723;28;20397;-68
2021/11/01 13:27:32;;;;;;;10.90;7.20;;;;;;;;;;5029803;28;20405;-75
2021/11/01 13:35:35;;;;;;;12.57;8.40;;;;;;;;;;5013875;28;21025;-73
2021/11/01 13:38:08;;;;;;;15.63;8.70;;;;;;;;;;5018218;28;20543;-69
2021/11/01 13:40:35;;;;;;;14.00;9.17;;;;;;;;;;5029919;28;20423;-69
2021/11/01 13:43:01;;;;;;;14.43;8.23;;;;;;;;;;5015330;28;20393;-69
2021/11/01 13:45:27;;;;;;;13.47;8.50;;;;;;;;;;5009703;28;20456;-67
2021/11/01 13:47:54;;;;;;;14.37;9.23;;;;;;;;;;5028273;28;20161;-71
2021/11/01 13:50:21;;;;;;;10.50;7.80;;;;;;;;;;5029858;28;20678;-66
2021/11/01 13:53:04;;;;;;;17.83;11.33;;;;;;;;;;5029691;28;20401;-67
2021/11/01 13:55:35;;;;;;;16.20;9.03;;;;;;;;;;5027692;28;20455;-71
2021/11/01 13:58:12;;;;;;;15.40;8.63;;;;;;;;;;5033716;28;20415;-73
2021/11/01 14:16:28;;;;;;;16.20;9.80;;;;;;;;;;5033287;28;20397;-69
2021/11/01 14:19:23;;;;;;;19.43;10.67;;;;;;;;;;5028341;28;20424;-72
2021/11/01 15:00:10;;;;;;;20.60;10.77;;;;;;;;;;5030988;28;20507;-69
2021/11/01 15:06:38;;;;;;;21.70;14.00;;;;;;;;;;5030286;28;20468;-70
2021/11/01 15:21:09;;;;;;;19.20;11.13;;;;;;;;;;5025846;28;20629;-71
2021/11/01 15:34:49;;;;;;;15.93;10.47;;;;;;;;;;5013041;28;20452;-73
2021/11/01 16:18:00;;;;;;;15.90;11.80;;;;;;;;;;5031065;28;20416;-75
2021/11/01 16:20:26;;;;;;;20.83;13.03;;;;;;;;;;5030616;28;20169;-76
2021/11/01 16:23:24;;;;;;;22.23;12.67;;;;;;;;;;5030744;28;20404;-72
2021/11/01 16:25:58;;;;;;;20.60;13.63;;;;;;;;;;5025010;28;20240;-75
2021/11/01 16:28:24;;;;;;;23.37;14.20;;;;;;;;;;5022405;28;20463;-71
2021/11/01 16:31:15;;;;;;;24.47;14.33;;;;;;;;;;5016733;28;20474;-73
2021/11/01 16:33:49;;;;;;;26.07;12.70;;;;;;;;;;5011860;28;20448;-70
2021/11/01 16:36:39;;;;;;;23.73;14.10;;;;;;;;;;5028678;28;20459;-73
2021/11/01 16:39:05;;;;;;;24.23;16.30;;;;;;;;;;5030956;28;20397;-75
2021/11/01 16:41:32;;;;;;;30.53;17.13;;;;;;;;;;5031117;28;20388;-72
2021/11/01 16:43:59;;;;;;;28.30;17.70;;;;;;;;;;5025559;28;20162;-71
2021/11/01 16:46:26;;;;;;;29.10;17.87;;;;;;;;;;5018255;28;20436;-72
2021/11/01 16:48:51;;;;;;;28.97;17.23;;;;;;;;;;5028797;28;20426;-76
2021/11/01 16:51:16;;;;;;;22.47;15.10;;;;;;;;;;5030806;28;20751;-71
2021/11/01 16:53:43;;;;;;;33.30;17.90;;;;;;;;;;5026065;28;20190;-70
2021/11/01 16:58:48;;;;;;;33.63;17.20;;;;;;;;;;5031201;28;20790;-70
2021/11/01 17:01:17;;;;;;;23.67;15.60;;;;;;;;;;5029969;28;20409;-70
2021/11/01 17:03:49;;;;;;;26.50;17.60;;;;;;;;;;5030143;28;20927;-69
2021/11/01 17:25:08;;;;;;;37.90;24.20;;;;;;;;;;5016572;28;20782;-69
2021/11/01 17:27:48;;;;;;;36.07;23.97;;;;;;;;;;5024973;28;20630;-73
2021/11/01 17:31:15;;;;;;;33.73;23.03;;;;;;;;;;5033707;28;20411;-69
2021/11/01 18:39:37;;;;;;;36.67;22.83;;;;;;;;;;5027272;28;20531;-70
2021/11/01 18:53:14;;;;;;;47.57;28.90;;;;;;;;;;5025003;28;20412;-70
2021/11/01 18:55:39;;;;;;;47.27;29.50;;;;;;;;;;5023394;28;20454;-69
2021/11/01 18:58:06;;;;;;;44.00;30.30;;;;;;;;;;5030910;28;20455;-73
2021/11/01 19:00:42;;;;;;;42.97;29.60;;;;;;;;;;5028343;28;20257;-72
2021/11/01 19:03:08;;;;;;;44.47;30.57;;;;;;;;;;5031044;28;20393;-68
2021/11/01 19:05:41;;;;;;;42.77;29.57;;;;;;;;;;5030579;28;20397;-71
2021/11/01 20:05:58;;;;;;;33.73;24.40;;;;;;;;;;5032013;28;20443;-67
2021/11/01 21:25:52;;;;;;;49.90;35.77;;;;;;;;;;5017588;28;20416;-67
2021/11/01 21:28:17;;;;;;;46.83;34.47;;;;;;;;;;5018582;28;20437;-67
2021/11/01 21:30:43;;;;;;;50.47;35.77;;;;;;;;;;5014600;28;20616;-67
2021/11/01 21:33:09;;;;;;;49.63;34.43;;;;;;;;;;5015309;28;20189;-67
2021/11/01 21:35:42;;;;;;;52.43;37.20;;;;;;;;;;5029104;28;20236;-67
2021/11/01 21:38:07;;;;;;;50.57;34.70;;;;;;;;;;5033494;28;20965;-66
2021/11/01 21:40:33;;;;;;;55.93;38.17;;;;;;;;;;5021266;28;20435;-67
2021/11/01 21:42:58;;;;;;;57.47;37.80;;;;;;;;;;5032170;28;20169;-67
2021/11/01 21:45:23;;;;;;;55.40;37.83;;;;;;;;;;5024588;28;20570;-67
2021/11/01 21:47:48;;;;;;;55.40;37.73;;;;;;;;;;5014006;28;20181;-68
2021/11/01 21:50:15;;;;;;;56.50;39.30;;;;;;;;;;5013873;28;20155;-67
2021/11/01 21:52:42;;;;;;;53.20;38.23;;;;;;;;;;5019438;28;20163;-66
2021/11/01 21:55:07;;;;;;;61.73;37.93;;;;;;;;;;5027085;28;20468;-66
2021/11/01 22:21:43;;;;;;;60.97;38.73;;;;;;;;;;5033529;28;20590;-67
2021/11/01 22:24:13;;;;;;;61.27;39.03;;;;;;;;;;5022830;28;20413;-67
2021/11/01 22:47:43;;;;;;;51.40;33.60;;;;;;;;;;5032813;28;20417;-68
2021/11/01 22:58:12;;;;;;;39.60;28.20;;;;;;;;;;5025131;28;20844;-70
2021/11/01 23:01:11;;;;;;;34.80;25.17;;;;;;;;;;5025897;28;20422;-66
2021/11/01 23:33:05;;;;;;;44.07;27.60;;;;;;;;;;5030437;28;20488;-64
2021/11/01 23:35:31;;;;;;;42.50;28.40;;;;;;;;;;5027037;28;20456;-65
2021/11/01 23:38:01;;;;;;;48.10;28.83;;;;;;;;;;5029977;28;20249;-66
2021/11/01 23:40:26;;;;;;;42.03;28.50;;;;;;;;;;5030647;28;20554;-63
2021/11/01 23:42:52;;;;;;;50.33;30.60;;;;;;;;;;5013891;28;20410;-64
2021/11/01 23:45:17;;;;;;;46.53;31.03;;;;;;;;;;5010914;28;20196;-64
2021/11/01 23:47:43;;;;;;;43.63;27.93;;;;;;;;;;5009325;28;20728;-65
2021/11/01 23:50:09;;;;;;;39.30;29.27;;;;;;;;;;5011067;28;20167;-63
2021/11/01 23:52:40;;;;;;;42.53;29.50;;;;;;;;;;5018467;28;20781;-63
2021/11/01 23:55:06;;;;;;;41.10;27.43;;;;;;;;;;5023101;28;20201;-65
2021/11/01 23:57:31;;;;;;;44.93;30.03;;;;;;;;;;5024839;28;20424;-64
2021/11/01 23:59:57;;;;;;;40.23;27.40;;;;;;;;;;5014946;28;20420;-65
